createdAt,value
2022-11-05T00:02:54.836Z,78.64
2022-11-05T00:08:16.853Z,78.69
2022-11-05T00:13:37.632Z,78.94
2022-11-05T00:18:39.628Z,79.13
2022-11-05T00:24:00.016Z,79.38
2022-11-05T00:29:01.843Z,79.34
2022-11-05T00:34:03.834Z,79.25
2022-11-05T00:39:06.531Z,78.92
2022-11-05T00:44:27.063Z,79.29
2022-11-05T00:49:32.016Z,79.77
2022-11-05T00:54:34.013Z,79.66
2022-11-05T00:59:35.969Z,80.10
2022-11-05T01:04:37.948Z,79.73
2022-11-05T01:09:39.849Z,79.87
2022-11-05T01:14:41.833Z,79.73
2022-11-05T01:19:43.810Z,79.83
2022-11-05T01:24:45.724Z,79.92
2022-11-05T01:29:47.645Z,79.78
2022-11-05T01:34:49.657Z,79.98
2022-11-05T01:39:51.618Z,80.01
2022-11-05T01:45:01.147Z,80.15
2022-11-05T01:50:12.186Z,80.20
2022-11-05T01:55:17.639Z,80.12
2022-11-05T02:00:19.698Z,80.81
2022-11-05T02:05:21.964Z,80.41
2022-11-05T02:10:24.611Z,80.22
2022-11-05T02:15:47.172Z,79.95
2022-11-05T02:21:15.327Z,80.57
2022-11-05T02:26:36.249Z,80.63
2022-11-05T02:31:56.847Z,80.90
2022-11-05T02:37:13.276Z,80.76
2022-11-05T02:42:36.559Z,80.50
2022-11-05T02:47:58.030Z,80.48
2022-11-05T02:53:04.619Z,80.67
2022-11-05T02:58:06.809Z,80.84
2022-11-05T03:03:25.309Z,80.37
2022-11-05T03:08:59.269Z,80.97
2022-11-05T03:14:23.080Z,80.69
2022-11-05T03:20:09.031Z,80.64
2022-11-05T03:25:18.181Z,80.25
2022-11-05T03:30:20.576Z,80.61
2022-11-05T03:35:42.446Z,80.63
2022-11-05T03:40:45.992Z,80.25
2022-11-05T03:45:55.175Z,81.27
2022-11-05T03:51:14.759Z,82.28
2022-11-05T03:56:23.647Z,82.28
2022-11-05T04:01:25.996Z,82.02
2022-11-05T04:06:46.879Z,81.94
2022-11-05T04:12:18.287Z,81.71
2022-11-05T04:17:20.229Z,82.80
2022-11-05T04:22:42.078Z,82.79
2022-11-05T04:27:44.926Z,82.30
2022-11-05T04:33:05.663Z,82.51
2022-11-05T04:38:10.712Z,83.25
2022-11-05T04:43:15.641Z,83.49
2022-11-05T04:48:17.711Z,83.52
2022-11-05T04:53:19.728Z,83.33
2022-11-05T04:58:21.941Z,83.14
2022-11-05T05:03:24.070Z,83.14
2022-11-05T05:08:26.041Z,83.73
2022-11-05T05:13:28.076Z,84.74
2022-11-05T05:18:30.076Z,84.71
2022-11-05T05:23:32.016Z,84.71
2022-11-05T05:28:33.989Z,85.14
2022-11-05T05:33:36.178Z,85.45
2022-11-05T05:38:38.313Z,85.29
2022-11-05T05:43:40.288Z,84.83
2022-11-05T05:48:43.393Z,85.19
2022-11-05T05:53:45.704Z,84.77
2022-11-05T05:58:47.690Z,85.85
2022-11-05T06:03:50.153Z,85.74
2022-11-05T06:08:52.121Z,85.88
2022-11-05T06:13:54.111Z,85.32
2022-11-05T06:18:56.140Z,86.02
2022-11-05T06:23:58.188Z,85.62
2022-11-05T06:29:00.166Z,85.52
2022-11-05T06:34:03.082Z,85.69
2022-11-05T06:39:05.080Z,85.47
2022-11-05T06:44:07.049Z,85.57
2022-11-05T06:49:09.022Z,85.67
2022-11-05T06:54:11.124Z,85.19
2022-11-05T06:59:13.202Z,85.45
2022-11-05T07:04:15.420Z,85.12
2022-11-05T07:09:17.266Z,85.29
2022-11-05T07:14:19.252Z,85.01
2022-11-05T07:19:21.374Z,84.99
2022-11-05T07:24:23.373Z,84.53
2022-11-05T07:29:25.355Z,84.55
2022-11-05T07:34:27.385Z,84.66
2022-11-05T07:39:29.397Z,84.72
2022-11-05T07:44:31.407Z,84.32
2022-11-05T07:49:33.367Z,84.43
2022-11-05T07:54:35.376Z,84.36
2022-11-05T07:59:37.426Z,83.68
2022-11-05T08:04:40.707Z,83.68
2022-11-05T08:09:42.803Z,83.53
2022-11-05T08:14:44.808Z,83.83
2022-11-05T08:19:46.835Z,84.01
2022-11-05T08:24:48.905Z,83.06
2022-11-05T08:29:50.908Z,83.58
2022-11-05T08:34:52.873Z,83.30
2022-11-05T08:39:54.837Z,83.69
2022-11-05T08:44:56.862Z,83.72
2022-11-05T08:49:58.877Z,83.04
2022-11-05T08:55:00.891Z,83.16
2022-11-05T09:00:03.207Z,83.23
2022-11-05T09:05:05.608Z,82.63
2022-11-05T09:10:07.908Z,82.98
2022-11-05T09:15:10.570Z,83.23
2022-11-05T09:20:12.706Z,83.15
2022-11-05T09:25:16.141Z,82.97
2022-11-05T09:30:18.327Z,82.88
2022-11-05T09:35:20.240Z,83.40
2022-11-05T09:40:22.618Z,82.90
2022-11-05T09:45:27.407Z,82.89
2022-11-05T09:50:50.956Z,82.65
2022-11-05T09:55:56.717Z,82.90
2022-11-05T10:00:59.370Z,82.71
2022-11-05T10:06:09.528Z,82.65
2022-11-05T10:11:19.102Z,82.33
2022-11-05T10:16:34.720Z,82.04
2022-11-05T10:22:04.871Z,81.94
2022-11-05T10:27:00.959Z,82.81
2022-11-05T10:32:06.038Z,81.97
2022-11-05T10:37:09.263Z,82.07
2022-11-05T10:42:40.866Z,82.33
2022-11-05T10:47:48.867Z,82.19
2022-11-05T10:53:12.513Z,81.96
2022-11-05T10:58:14.856Z,82.08
2022-11-05T11:03:44.248Z,82.34
2022-11-05T11:08:49.186Z,82.29
2022-11-05T11:13:51.662Z,82.05
2022-11-05T11:19:01.537Z,82.25
2022-11-05T11:24:07.315Z,82.15
2022-11-05T11:29:29.354Z,82.19
2022-11-05T11:34:39.304Z,82.07
2022-11-05T11:39:46.384Z,81.68
2022-11-05T11:44:50.187Z,82.05
2022-11-05T11:50:02.815Z,81.87
2022-11-05T11:55:22.640Z,82.21
2022-11-05T12:00:27.213Z,82.10
2022-11-05T12:05:44.364Z,82.27
2022-11-05T12:11:00.681Z,81.73
2022-11-05T12:16:16.002Z,81.77
2022-11-05T12:21:53.268Z,82.05
2022-11-05T12:27:14.206Z,82.20
2022-11-05T12:32:42.819Z,81.72
2022-11-05T12:37:47.810Z,82.44
2022-11-05T12:43:01.938Z,81.63
2022-11-05T12:48:28.424Z,82.56
2022-11-05T12:54:06.616Z,82.05
2022-11-05T12:59:25.980Z,81.73
2022-11-05T13:04:40.107Z,81.88
2022-11-05T13:09:54.347Z,82.16
2022-11-05T13:15:19.385Z,82.16
2022-11-05T13:20:36.700Z,81.71
2022-11-05T13:25:48.877Z,81.65
2022-11-05T13:30:55.336Z,82.02
2022-11-05T13:36:42.709Z,82.14
2022-11-05T13:42:08.659Z,81.47
2022-11-05T13:47:16.520Z,82.10
2022-11-05T13:52:44.711Z,81.59
2022-11-05T13:58:04.974Z,82.17
2022-11-05T14:03:14.431Z,81.36
2022-11-05T14:08:24.628Z,81.09
2022-11-05T14:13:35.075Z,81.18
2022-11-05T14:18:46.573Z,81.59
2022-11-05T14:23:55.484Z,81.12
2022-11-05T14:29:03.715Z,81.23
2022-11-05T14:34:11.630Z,81.64
2022-11-05T14:39:16.619Z,81.00
2022-11-05T14:44:18.724Z,81.05
2022-11-05T14:49:23.390Z,80.89
2022-11-05T14:54:44.372Z,81.05
2022-11-05T14:59:49.134Z,80.93
2022-11-05T15:04:53.437Z,81.65
2022-11-05T15:09:59.114Z,80.99
2022-11-05T15:15:21.754Z,80.82
2022-11-05T15:20:53.371Z,81.08
2022-11-05T15:26:03.554Z,80.57
2022-11-05T15:31:07.138Z,80.31
2022-11-05T15:36:24.875Z,80.27
2022-11-05T15:41:34.266Z,80.56
2022-11-05T15:46:36.502Z,80.78
2022-11-05T15:51:38.425Z,80.65
2022-11-05T15:57:14.220Z,80.73
2022-11-05T16:02:29.652Z,80.46
2022-11-05T16:07:32.595Z,80.34
2022-11-05T16:12:37.170Z,80.05
2022-11-05T16:17:58.518Z,80.09
2022-11-05T16:23:04.650Z,80.37
2022-11-05T16:28:21.090Z,80.20
2022-11-05T16:33:24.228Z,79.94
2022-11-05T16:38:26.478Z,80.28
2022-11-05T16:43:28.902Z,80.58
2022-11-05T16:48:31.186Z,80.09
2022-11-05T16:53:33.422Z,80.14
2022-11-05T16:58:35.772Z,80.08
2022-11-05T17:03:37.882Z,80.20
2022-11-05T17:08:40.492Z,80.01
2022-11-05T17:13:43.315Z,79.98
2022-11-05T17:18:45.941Z,80.05
2022-11-05T17:23:48.097Z,80.21
2022-11-05T17:28:50.632Z,80.13
2022-11-05T17:34:02.494Z,80.45
2022-11-05T17:39:05.226Z,80.28
2022-11-05T17:44:09.638Z,80.18
2022-11-05T17:49:12.436Z,80.16
2022-11-05T17:54:14.655Z,80.16
2022-11-05T17:59:20.820Z,80.20
2022-11-05T18:04:23.347Z,80.24
2022-11-05T18:09:25.437Z,80.03
2022-11-05T18:14:28.294Z,79.89
2022-11-05T18:19:30.931Z,80.20
2022-11-05T18:24:35.614Z,80.06
2022-11-05T18:29:38.353Z,80.18
2022-11-05T18:34:40.871Z,79.91
2022-11-05T18:39:43.595Z,80.24
2022-11-05T18:44:46.215Z,80.27
2022-11-05T18:49:48.752Z,80.04
2022-11-05T18:54:51.319Z,80.21
2022-11-05T18:59:53.715Z,79.77
2022-11-05T19:05:26.869Z,80.12
2022-11-05T19:10:19.229Z,79.67
2022-11-05T19:15:21.674Z,80.13
2022-11-05T19:20:24.581Z,80.08
2022-11-05T19:25:26.751Z,79.94
2022-11-05T19:30:29.202Z,79.91
2022-11-05T19:35:34.614Z,80.12
2022-11-05T19:40:39.582Z,79.99
2022-11-05T19:45:45.210Z,80.05
2022-11-05T19:50:48.513Z,79.68
2022-11-05T19:55:51.123Z,79.97
2022-11-05T20:00:56.573Z,79.84
2022-11-05T20:06:06.625Z,79.59
2022-11-05T20:11:09.618Z,80.28
2022-11-05T20:16:32.939Z,79.96
2022-11-05T20:21:35.911Z,79.83
2022-11-05T20:26:40.475Z,79.84
2022-11-05T20:31:47.494Z,79.63
2022-11-05T20:36:50.901Z,79.77
2022-11-05T20:41:55.533Z,79.70
2022-11-05T20:46:58.895Z,79.34
2022-11-05T20:52:01.892Z,79.99
2022-11-05T20:57:05.070Z,79.80
2022-11-05T21:02:08.532Z,79.76
2022-11-05T21:07:11.815Z,79.49
2022-11-05T21:12:14.944Z,79.88
2022-11-05T21:17:17.812Z,80.00
2022-11-05T21:22:21.785Z,79.72
2022-11-05T21:27:24.658Z,79.80
2022-11-05T21:32:27.259Z,79.72
2022-11-05T21:37:29.511Z,79.86
2022-11-05T21:42:32.869Z,79.36
2022-11-05T21:47:35.185Z,79.66
2022-11-05T21:52:55.694Z,79.89
2022-11-05T21:58:23.057Z,80.11
2022-11-05T22:03:25.100Z,79.32
2022-11-05T22:08:27.554Z,79.88
2022-11-05T22:13:29.779Z,79.41
2022-11-05T22:18:31.863Z,79.44
2022-11-05T22:23:34.027Z,79.79
2022-11-05T22:28:36.138Z,79.94
2022-11-05T22:33:38.167Z,79.80
2022-11-05T22:38:40.810Z,79.92
2022-11-05T22:43:42.821Z,79.53
2022-11-05T22:48:45.963Z,79.47
2022-11-05T22:53:49.254Z,79.42
2022-11-05T22:58:51.753Z,79.08
2022-11-05T23:03:55.650Z,79.56
2022-11-05T23:09:17.369Z,79.29
2022-11-05T23:14:19.741Z,78.91
2022-11-05T23:19:40.591Z,79.27
2022-11-05T23:24:42.605Z,79.30
2022-11-05T23:29:44.608Z,78.98
2022-11-05T23:34:46.653Z,78.63
2022-11-05T23:39:48.640Z,78.92
2022-11-05T23:45:14.091Z,78.71
2022-11-05T23:50:16.629Z,78.32
2022-11-05T23:55:18.658Z,78.26
